createdAt,value
2018-08-31T00:00:56.069Z,15.60
2018-08-31T00:04:36.925Z,15.50
2018-08-31T00:07:16.985Z,15.50
2018-08-31T00:09:58.890Z,15.30
2018-08-31T00:12:37.096Z,15.00
2018-08-31T00:15:06.119Z,15.10
2018-08-31T00:17:35.201Z,14.90
2018-08-31T00:20:03.907Z,15.00
2018-08-31T00:22:32.724Z,15.00
2018-08-31T00:25:14.536Z,15.00
2018-08-31T00:27:54.654Z,15.00
2018-08-31T00:30:35.259Z,15.10
2018-08-31T00:33:15.244Z,15.10
2018-08-31T00:38:06.130Z,15.10
2018-08-31T00:42:49.903Z,15.10
2018-08-31T00:45:28.849Z,15.00
2018-08-31T00:47:58.625Z,14.80
2018-08-31T00:50:27.365Z,14.70
2018-08-31T00:52:56.317Z,14.60
2018-08-31T00:55:24.973Z,14.60
2018-08-31T00:57:56.572Z,14.60
2018-08-31T01:00:25.225Z,14.70
2018-08-31T01:02:53.870Z,14.70
2018-08-31T01:05:22.510Z,14.70
2018-08-31T01:07:51.168Z,14.60
2018-08-31T01:10:21.118Z,14.60
2018-08-31T01:12:49.997Z,14.60
2018-08-31T01:15:18.729Z,14.60
2018-08-31T01:17:47.413Z,14.60
2018-08-31T01:20:16.056Z,14.60
2018-08-31T01:22:44.703Z,14.60
2018-08-31T01:25:13.355Z,14.60
2018-08-31T01:27:42.221Z,14.50
2018-08-31T01:30:10.878Z,14.50
2018-08-31T01:32:39.565Z,14.60
2018-08-31T01:35:08.216Z,14.70
2018-08-31T01:37:36.868Z,14.70
2018-08-31T01:40:05.733Z,14.60
2018-08-31T01:42:34.673Z,14.60
2018-08-31T01:45:03.386Z,14.60
2018-08-31T01:47:32.229Z,14.70
2018-08-31T01:50:00.892Z,14.60
2018-08-31T01:52:29.578Z,14.50
2018-08-31T01:54:58.302Z,14.50
2018-08-31T01:57:27.137Z,14.60
2018-08-31T01:59:55.794Z,14.60
2018-08-31T02:02:24.738Z,14.50
2018-08-31T02:04:54.167Z,14.50
2018-08-31T02:07:22.810Z,14.50
2018-08-31T02:09:51.473Z,14.40
2018-08-31T02:12:20.130Z,14.40
2018-08-31T02:14:48.795Z,14.40
2018-08-31T02:17:17.461Z,14.40
2018-08-31T02:19:46.129Z,14.40
2018-08-31T02:22:14.869Z,14.40
2018-08-31T02:24:43.595Z,14.30
2018-08-31T02:27:12.265Z,14.20
2018-08-31T02:29:40.914Z,14.20
2018-08-31T02:32:09.600Z,14.10
2018-08-31T02:34:38.261Z,14.00
2018-08-31T02:37:06.934Z,13.90
2018-08-31T02:39:35.577Z,13.90
2018-08-31T02:42:04.234Z,13.90
2018-08-31T02:44:32.893Z,13.90
2018-08-31T02:47:01.549Z,13.70
2018-08-31T02:49:30.202Z,13.80
2018-08-31T02:51:58.888Z,13.70
2018-08-31T02:54:27.536Z,13.70
2018-08-31T02:56:56.198Z,13.70
2018-08-31T02:59:24.897Z,13.60
2018-08-31T03:01:53.545Z,13.60
2018-08-31T03:04:22.278Z,13.50
2018-08-31T03:06:50.945Z,13.30
2018-08-31T03:09:19.594Z,13.30
2018-08-31T03:11:48.242Z,13.20
2018-08-31T03:14:17.246Z,13.20
2018-08-31T03:16:45.857Z,13.20
2018-08-31T03:19:14.525Z,13.20
2018-08-31T03:21:43.186Z,13.20
2018-08-31T03:24:11.910Z,13.10
2018-08-31T03:26:40.568Z,13.00
2018-08-31T03:29:09.227Z,13.10
2018-08-31T03:31:37.854Z,13.10
2018-08-31T03:34:06.506Z,13.00
2018-08-31T03:36:35.149Z,13.00
2018-08-31T03:39:04.446Z,13.00
2018-08-31T03:41:33.094Z,13.00
2018-08-31T03:44:01.761Z,12.90
2018-08-31T03:46:30.470Z,12.90
2018-08-31T03:48:59.067Z,12.70
2018-08-31T03:51:27.853Z,12.70
2018-08-31T03:53:56.738Z,12.80
2018-08-31T03:56:25.398Z,12.70
2018-08-31T03:58:54.054Z,12.70
2018-08-31T04:01:22.711Z,12.70
2018-08-31T04:03:51.414Z,12.70
2018-08-31T04:06:20.065Z,12.70
2018-08-31T04:08:48.713Z,12.70
2018-08-31T04:11:17.382Z,12.60
2018-08-31T04:13:46.094Z,12.70
2018-08-31T04:16:14.741Z,12.70
2018-08-31T04:18:43.388Z,12.60
2018-08-31T04:21:12.060Z,12.70
2018-08-31T04:23:40.722Z,12.70
2018-08-31T04:26:09.379Z,12.80
2018-08-31T04:28:38.028Z,12.80
2018-08-31T04:31:06.705Z,12.70
2018-08-31T04:33:35.357Z,12.60
2018-08-31T04:36:04.190Z,12.60
2018-08-31T04:38:32.850Z,12.40
2018-08-31T04:41:01.503Z,12.50
2018-08-31T04:43:30.160Z,12.60
2018-08-31T04:45:58.829Z,12.60
2018-08-31T04:48:27.491Z,12.60
2018-08-31T04:50:56.154Z,12.60
2018-08-31T04:53:24.813Z,12.50
2018-08-31T04:55:53.479Z,12.50
2018-08-31T04:58:22.125Z,12.40
2018-08-31T05:00:50.790Z,12.40
2018-08-31T05:03:19.454Z,12.30
2018-08-31T05:05:48.186Z,12.30
2018-08-31T05:08:16.843Z,12.40
2018-08-31T05:10:45.490Z,12.50
2018-08-31T05:13:14.154Z,12.40
2018-08-31T05:15:42.826Z,12.50
2018-08-31T05:18:11.457Z,12.60
2018-08-31T05:20:40.130Z,12.70
2018-08-31T05:23:08.844Z,12.70
2018-08-31T05:25:37.443Z,12.80
2018-08-31T05:28:06.100Z,12.90
2018-08-31T05:30:34.765Z,12.80
2018-08-31T05:33:03.421Z,12.90
2018-08-31T05:35:32.093Z,12.90
2018-08-31T05:38:00.754Z,12.90
2018-08-31T05:40:29.504Z,13.00
2018-08-31T05:42:58.158Z,13.00
2018-08-31T05:45:27.095Z,13.00
2018-08-31T05:47:55.763Z,13.10
2018-08-31T05:50:24.397Z,13.20
2018-08-31T05:52:53.070Z,13.30
2018-08-31T05:55:21.733Z,13.20
2018-08-31T05:57:50.415Z,13.30
2018-08-31T06:00:19.079Z,13.40
2018-08-31T06:02:47.729Z,13.50
2018-08-31T06:05:16.382Z,13.50
2018-08-31T06:07:45.058Z,13.70
2018-08-31T06:10:13.700Z,13.70
2018-08-31T06:12:42.395Z,13.70
2018-08-31T06:15:11.044Z,13.80
2018-08-31T06:17:39.754Z,13.90
2018-08-31T06:20:08.778Z,14.00
2018-08-31T06:22:37.434Z,13.90
2018-08-31T06:25:06.365Z,13.90
2018-08-31T06:27:35.041Z,14.10
2018-08-31T06:30:03.683Z,14.10
2018-08-31T06:32:32.355Z,14.00
2018-08-31T06:35:01.001Z,14.20
2018-08-31T06:37:29.690Z,14.30
2018-08-31T06:39:58.336Z,14.40
2018-08-31T06:42:26.989Z,14.50
2018-08-31T06:44:55.653Z,14.60
2018-08-31T06:47:24.341Z,14.40
2018-08-31T06:49:53.027Z,14.30
2018-08-31T06:52:21.671Z,14.50
2018-08-31T06:54:50.342Z,14.60
2018-08-31T06:57:19.685Z,14.60
2018-08-31T06:59:48.337Z,14.70
2018-08-31T07:02:17.377Z,14.70
2018-08-31T07:04:46.029Z,14.70
2018-08-31T07:07:14.681Z,14.80
2018-08-31T07:09:43.329Z,14.80
2018-08-31T07:12:11.995Z,15.00
2018-08-31T07:14:40.631Z,14.90
2018-08-31T07:17:09.290Z,15.00
2018-08-31T07:19:37.993Z,15.00
2018-08-31T07:22:06.659Z,15.00
2018-08-31T07:24:35.308Z,15.00
2018-08-31T07:27:03.969Z,15.20
2018-08-31T07:29:32.644Z,15.40
2018-08-31T07:32:01.296Z,15.50
2018-08-31T07:34:29.940Z,15.70
2018-08-31T07:36:58.608Z,15.80
2018-08-31T07:39:27.258Z,15.90
2018-08-31T07:41:55.986Z,16.20
2018-08-31T07:44:24.579Z,16.40
2018-08-31T07:46:53.234Z,16.60
2018-08-31T07:49:21.869Z,16.80
2018-08-31T07:51:50.535Z,16.90
2018-08-31T07:54:19.176Z,16.90
2018-08-31T07:56:47.825Z,16.90
2018-08-31T07:59:16.457Z,16.90
2018-08-31T08:01:45.105Z,16.80
2018-08-31T08:04:13.751Z,16.60
2018-08-31T08:06:42.399Z,16.60
2018-08-31T08:09:11.380Z,16.30
2018-08-31T08:11:40.038Z,16.40
2018-08-31T08:14:08.699Z,16.70
2018-08-31T08:16:37.343Z,16.90
2018-08-31T08:19:06.037Z,17.30
2018-08-31T08:21:34.677Z,17.70
2018-08-31T08:24:03.309Z,18.40
2018-08-31T08:26:31.949Z,18.60
2018-08-31T08:29:00.623Z,18.90
2018-08-31T08:31:29.270Z,19.10
2018-08-31T08:33:57.902Z,19.20
2018-08-31T08:36:26.547Z,19.40
2018-08-31T08:38:55.188Z,19.60
2018-08-31T08:41:23.833Z,19.80
2018-08-31T08:43:52.471Z,20.10
2018-08-31T08:46:21.123Z,20.40
2018-08-31T08:48:49.854Z,20.80
2018-08-31T08:51:18.423Z,21.30
2018-08-31T08:53:47.061Z,21.50
2018-08-31T08:56:15.725Z,21.30
2018-08-31T08:58:44.378Z,21.60
2018-08-31T09:01:13.015Z,22.10
2018-08-31T09:03:41.663Z,22.70
2018-08-31T09:06:10.295Z,22.70
2018-08-31T09:08:38.929Z,22.30
2018-08-31T09:11:07.561Z,22.10
2018-08-31T09:13:36.209Z,22.50
2018-08-31T09:16:04.845Z,22.70
2018-08-31T09:18:33.635Z,22.60
2018-08-31T09:21:02.146Z,22.30
2018-08-31T09:23:30.779Z,22.70
2018-08-31T09:26:01.753Z,23.00
2018-08-31T09:28:30.406Z,22.90
2018-08-31T09:30:59.042Z,23.10
2018-08-31T09:33:27.689Z,23.40
2018-08-31T09:35:56.330Z,23.60
2018-08-31T09:38:25.031Z,23.40
2018-08-31T09:40:53.661Z,23.10
2018-08-31T09:43:22.314Z,22.50
2018-08-31T09:45:50.942Z,22.50
2018-08-31T09:48:19.567Z,22.40
2018-08-31T09:50:48.226Z,21.70
2018-08-31T09:53:16.998Z,21.40
2018-08-31T09:55:45.665Z,21.00
2018-08-31T09:58:14.337Z,20.40
2018-08-31T10:00:48.508Z,20.80
2018-08-31T10:03:22.125Z,21.30
2018-08-31T10:05:51.401Z,21.10
2018-08-31T10:08:20.101Z,21.00
2018-08-31T10:10:48.921Z,22.00
2018-08-31T10:13:17.534Z,21.80
2018-08-31T10:15:46.173Z,22.00
2018-08-31T10:18:14.825Z,22.30
2018-08-31T10:20:43.486Z,22.60
2018-08-31T10:23:12.209Z,22.40
2018-08-31T10:25:40.858Z,22.50
2018-08-31T10:28:09.492Z,22.00
2018-08-31T10:30:38.138Z,22.00
2018-08-31T10:33:07.082Z,22.20
2018-08-31T10:35:35.757Z,22.80
2018-08-31T10:38:04.397Z,22.20
2018-08-31T10:40:33.045Z,22.20
2018-08-31T10:43:01.693Z,22.30
2018-08-31T10:45:30.346Z,23.10
2018-08-31T10:47:58.991Z,23.80
2018-08-31T10:50:27.657Z,23.90
2018-08-31T10:52:56.348Z,23.10
2018-08-31T10:55:24.989Z,22.30
2018-08-31T10:57:53.641Z,22.60
2018-08-31T11:00:22.285Z,22.70
2018-08-31T11:02:50.934Z,22.70
2018-08-31T11:05:19.573Z,22.90
2018-08-31T11:07:48.221Z,22.40
2018-08-31T11:10:16.910Z,23.10
2018-08-31T11:12:45.649Z,22.90
2018-08-31T11:15:14.213Z,22.80
2018-08-31T11:17:42.862Z,22.80
2018-08-31T11:20:11.502Z,22.80
2018-08-31T11:22:40.145Z,22.90
2018-08-31T11:25:08.822Z,23.10
2018-08-31T11:27:37.472Z,23.30
2018-08-31T11:30:06.941Z,23.80
2018-08-31T11:32:35.644Z,23.60
2018-08-31T11:35:04.251Z,23.80
2018-08-31T11:37:32.946Z,23.90
2018-08-31T11:40:01.597Z,23.60
2018-08-31T11:42:30.318Z,23.10
2018-08-31T11:44:58.983Z,22.70
2018-08-31T11:47:27.638Z,22.50
2018-08-31T11:49:56.298Z,22.50
2018-08-31T11:52:24.963Z,22.00
2018-08-31T11:54:53.613Z,21.80
2018-08-31T11:57:22.301Z,21.60
2018-08-31T11:59:50.957Z,21.90
2018-08-31T12:02:20.205Z,22.10
2018-08-31T12:04:48.849Z,22.50
2018-08-31T12:07:17.493Z,22.90
2018-08-31T12:09:46.146Z,23.40
2018-08-31T12:12:14.821Z,23.80
2018-08-31T12:14:43.461Z,24.00
2018-08-31T12:17:12.103Z,24.90
2018-08-31T12:19:40.782Z,24.90
2018-08-31T12:22:09.434Z,25.40
2018-08-31T12:24:38.118Z,25.70
2018-08-31T12:27:06.869Z,26.00
2018-08-31T12:29:35.564Z,25.80
2018-08-31T12:32:04.225Z,25.70
2018-08-31T12:34:32.873Z,25.60
2018-08-31T12:37:01.534Z,25.40
2018-08-31T12:39:30.189Z,24.80
2018-08-31T12:41:58.833Z,24.70
2018-08-31T12:44:27.469Z,24.50
2018-08-31T12:46:56.146Z,24.50
2018-08-31T12:49:24.795Z,24.00
2018-08-31T12:51:53.617Z,24.10
2018-08-31T12:54:22.306Z,24.00
2018-08-31T12:56:50.961Z,24.20
2018-08-31T12:59:19.609Z,24.10
2018-08-31T13:01:48.250Z,23.90
2018-08-31T13:04:16.905Z,23.80
2018-08-31T13:06:45.649Z,23.60
2018-08-31T13:09:14.397Z,23.30
2018-08-31T13:11:43.072Z,23.40
2018-08-31T13:14:11.789Z,23.80
2018-08-31T13:16:40.465Z,24.30
2018-08-31T13:19:09.181Z,24.10
2018-08-31T13:21:37.833Z,24.20
2018-08-31T13:24:06.522Z,24.40
2018-08-31T13:26:35.272Z,24.70
2018-08-31T13:29:04.053Z,25.00
2018-08-31T13:31:32.778Z,25.00
2018-08-31T13:34:01.544Z,25.10
2018-08-31T13:36:30.296Z,24.70
2018-08-31T13:38:58.926Z,24.80
2018-08-31T13:41:27.626Z,25.10
2018-08-31T13:43:56.315Z,25.20
2018-08-31T13:46:24.927Z,24.90
2018-08-31T13:48:53.574Z,24.10
2018-08-31T13:51:22.279Z,24.50
2018-08-31T13:53:51.001Z,24.70
2018-08-31T13:56:19.692Z,24.00
2018-08-31T13:58:48.393Z,23.60
2018-08-31T14:01:17.067Z,24.00
2018-08-31T14:03:45.831Z,23.50
2018-08-31T14:06:14.394Z,23.70
2018-08-31T14:08:43.055Z,23.40
2018-08-31T14:11:11.720Z,23.40
2018-08-31T14:13:40.375Z,22.90
2018-08-31T14:16:09.027Z,22.90
2018-08-31T14:18:37.681Z,23.00
2018-08-31T14:21:06.357Z,23.00
2018-08-31T14:23:34.999Z,22.80
2018-08-31T14:26:03.662Z,23.10
2018-08-31T14:28:32.350Z,23.00
2018-08-31T14:31:01.030Z,23.30
2018-08-31T14:33:29.777Z,23.30
2018-08-31T14:35:58.433Z,23.20
2018-08-31T14:38:27.102Z,23.80
2018-08-31T14:40:55.750Z,23.90
2018-08-31T14:43:24.497Z,24.00
2018-08-31T14:45:53.205Z,23.10
2018-08-31T14:48:21.930Z,23.20
2018-08-31T14:50:50.585Z,23.90
2018-08-31T14:53:19.245Z,23.80
2018-08-31T14:55:47.889Z,23.90
2018-08-31T14:58:16.529Z,23.60
2018-08-31T15:00:45.165Z,23.80
2018-08-31T15:03:13.817Z,23.50
2018-08-31T15:05:42.512Z,23.50
2018-08-31T15:08:11.129Z,23.30
2018-08-31T15:10:39.785Z,23.40
2018-08-31T15:13:08.542Z,23.10
2018-08-31T15:15:37.167Z,22.70
2018-08-31T15:18:05.818Z,22.80
2018-08-31T15:20:34.461Z,22.70
2018-08-31T15:23:03.233Z,22.90
2018-08-31T15:25:31.885Z,22.70
2018-08-31T15:28:00.625Z,22.40
2018-08-31T15:30:29.274Z,22.40
2018-08-31T15:32:57.964Z,22.30
2018-08-31T15:35:26.613Z,22.10
2018-08-31T15:37:55.272Z,21.80
2018-08-31T15:40:24.027Z,22.20
2018-08-31T15:42:52.675Z,22.50
2018-08-31T15:45:21.409Z,22.20
2018-08-31T15:47:50.881Z,22.10
2018-08-31T15:50:19.677Z,22.30
2018-08-31T15:52:48.287Z,22.40
2018-08-31T15:55:16.939Z,22.50
2018-08-31T15:57:45.586Z,22.40
2018-08-31T16:00:14.330Z,22.20
2018-08-31T16:02:42.970Z,21.70
2018-08-31T16:05:11.631Z,21.30
2018-08-31T16:07:40.270Z,21.50
2018-08-31T16:10:09.514Z,21.60
2018-08-31T16:12:38.243Z,21.40
2018-08-31T16:15:07.005Z,21.30
2018-08-31T16:17:35.657Z,21.00
2018-08-31T16:20:04.450Z,21.20
2018-08-31T16:22:33.240Z,21.40
2018-08-31T16:25:01.946Z,21.30
2018-08-31T16:27:30.602Z,21.30
2018-08-31T16:29:59.267Z,21.50
2018-08-31T16:32:27.909Z,21.40
2018-08-31T16:34:56.553Z,21.20
2018-08-31T16:37:25.232Z,21.20
2018-08-31T16:39:53.881Z,21.00
2018-08-31T16:42:22.533Z,20.60
2018-08-31T16:44:51.181Z,20.60
2018-08-31T16:47:19.880Z,20.60
2018-08-31T16:49:48.499Z,20.30
2018-08-31T16:52:17.147Z,20.00
2018-08-31T16:54:45.774Z,20.10
2018-08-31T16:57:14.469Z,20.20
2018-08-31T16:59:43.146Z,20.00
2018-08-31T17:02:11.770Z,19.80
2018-08-31T17:04:40.429Z,19.80
2018-08-31T17:07:09.073Z,19.90
2018-08-31T17:09:37.734Z,19.80
2018-08-31T17:12:06.389Z,19.70
2018-08-31T17:14:35.078Z,19.60
2018-08-31T17:17:03.728Z,19.40
2018-08-31T17:19:32.462Z,19.40
2018-08-31T17:22:01.119Z,19.40
2018-08-31T17:24:29.761Z,19.20
2018-08-31T17:27:04.037Z,19.00
2018-08-31T17:29:36.654Z,19.00
2018-08-31T17:32:10.796Z,19.00
2018-08-31T17:34:44.939Z,18.80
2018-08-31T17:37:19.066Z,18.80
2018-08-31T17:39:47.704Z,18.80
2018-08-31T17:42:16.361Z,18.80
2018-08-31T17:44:45.022Z,18.70
2018-08-31T17:47:13.674Z,18.70
2018-08-31T17:49:42.326Z,18.60
2018-08-31T17:52:11.021Z,18.50
2018-08-31T17:54:39.665Z,18.40
2018-08-31T17:57:08.326Z,18.30
2018-08-31T17:59:36.966Z,18.20
2018-08-31T18:02:05.657Z,18.00
2018-08-31T18:04:34.300Z,17.90
2018-08-31T18:07:02.945Z,17.70
2018-08-31T18:09:31.799Z,17.70
2018-08-31T18:12:00.241Z,17.50
2018-08-31T18:14:28.882Z,17.50
2018-08-31T18:16:57.557Z,17.50
2018-08-31T18:19:26.254Z,17.40
2018-08-31T18:21:54.972Z,17.30
2018-08-31T18:24:23.656Z,17.20
2018-08-31T18:26:52.989Z,17.10
2018-08-31T18:29:21.685Z,17.00
2018-08-31T18:31:50.413Z,17.00
2018-08-31T18:34:19.089Z,16.90
2018-08-31T18:36:47.789Z,16.80
2018-08-31T18:39:16.461Z,16.70
2018-08-31T18:41:46.030Z,16.70
2018-08-31T18:44:14.693Z,16.60
2018-08-31T18:46:43.452Z,16.50
2018-08-31T18:49:12.069Z,16.60
2018-08-31T18:51:40.864Z,16.60
2018-08-31T18:54:09.695Z,16.50
2018-08-31T18:56:38.316Z,16.50
2018-08-31T18:59:06.997Z,16.50
2018-08-31T19:01:35.653Z,16.40
2018-08-31T19:04:04.329Z,16.30
2018-08-31T19:06:33.049Z,16.20
2018-08-31T19:09:01.743Z,16.00
2018-08-31T19:11:30.412Z,15.90
2018-08-31T19:13:59.093Z,15.90
2018-08-31T19:16:27.747Z,15.80
2018-08-31T19:18:56.438Z,15.70
2018-08-31T19:21:25.169Z,15.60
2018-08-31T19:23:53.829Z,15.70
2018-08-31T19:26:22.498Z,15.60
2018-08-31T19:28:51.179Z,15.60
2018-08-31T19:31:19.937Z,15.60
2018-08-31T19:33:48.594Z,15.60
2018-08-31T19:36:17.238Z,15.60
2018-08-31T19:38:45.935Z,15.70
2018-08-31T19:41:15.775Z,15.70
2018-08-31T19:43:44.277Z,15.70
2018-08-31T19:46:12.974Z,15.60
2018-08-31T19:48:41.641Z,15.70
2018-08-31T19:51:10.313Z,15.70
2018-08-31T19:53:39.050Z,15.70
2018-08-31T19:56:07.618Z,15.80
2018-08-31T19:58:36.280Z,15.70
2018-08-31T20:01:05.202Z,15.60
2018-08-31T20:03:33.858Z,15.60
2018-08-31T20:06:02.510Z,15.60
2018-08-31T20:08:31.191Z,15.70
2018-08-31T20:10:59.857Z,15.60
2018-08-31T20:13:28.613Z,15.70
2018-08-31T20:15:57.177Z,15.70
2018-08-31T20:18:25.847Z,15.80
2018-08-31T20:20:54.502Z,15.80
2018-08-31T20:23:23.165Z,15.80
2018-08-31T20:25:51.834Z,15.90
2018-08-31T20:28:20.513Z,15.80
2018-08-31T20:30:49.228Z,15.80
2018-08-31T20:33:17.834Z,15.70
2018-08-31T20:35:46.522Z,15.70
2018-08-31T20:38:15.197Z,15.80
2018-08-31T20:40:43.845Z,15.70
2018-08-31T20:43:12.553Z,15.70
2018-08-31T20:45:41.207Z,15.70
2018-08-31T20:48:10.182Z,15.60
2018-08-31T20:50:38.938Z,15.50
2018-08-31T20:53:07.610Z,15.50
2018-08-31T20:55:36.263Z,15.50
2018-08-31T20:58:04.949Z,15.40
2018-08-31T21:00:33.606Z,15.40
2018-08-31T21:03:02.270Z,15.30
2018-08-31T21:05:30.935Z,15.20
2018-08-31T21:07:59.598Z,15.10
2018-08-31T21:10:28.282Z,15.10
2018-08-31T21:12:56.926Z,15.10
2018-08-31T21:15:25.581Z,15.10
2018-08-31T21:17:54.246Z,15.20
2018-08-31T21:20:22.913Z,15.20
2018-08-31T21:22:51.690Z,15.20
2018-08-31T21:25:20.343Z,15.20
2018-08-31T21:27:49.090Z,15.10
2018-08-31T21:30:17.757Z,15.10
2018-08-31T21:32:46.410Z,15.10
2018-08-31T21:35:15.082Z,15.10
2018-08-31T21:37:43.723Z,15.10
2018-08-31T21:40:12.434Z,15.10
2018-08-31T21:42:41.089Z,15.10
2018-08-31T21:45:09.735Z,15.10
2018-08-31T21:47:38.431Z,15.00
2018-08-31T21:50:07.070Z,15.00
2018-08-31T21:52:35.826Z,15.00
2018-08-31T21:55:04.493Z,15.10
2018-08-31T21:57:33.142Z,15.10
2018-08-31T22:00:01.789Z,15.00
2018-08-31T22:02:30.456Z,15.00
2018-08-31T22:04:59.145Z,15.00
2018-08-31T22:07:27.798Z,15.00
2018-08-31T22:09:56.473Z,15.10
2018-08-31T22:12:25.134Z,15.10
2018-08-31T22:14:53.859Z,15.10
2018-08-31T22:17:22.498Z,15.10
2018-08-31T22:19:51.161Z,15.10
2018-08-31T22:22:19.826Z,15.10
2018-08-31T22:24:48.662Z,15.00
2018-08-31T22:27:17.318Z,14.90
2018-08-31T22:29:45.948Z,15.00
2018-08-31T22:32:14.629Z,15.00
2018-08-31T22:34:43.270Z,15.00
2018-08-31T22:37:11.929Z,14.80
2018-08-31T22:39:40.589Z,14.80
2018-08-31T22:42:09.224Z,14.80
2018-08-31T22:44:37.864Z,14.80
2018-08-31T22:47:06.586Z,14.80
2018-08-31T22:49:35.233Z,14.80
2018-08-31T22:52:03.928Z,14.70
2018-08-31T22:54:32.598Z,14.70
2018-08-31T22:57:01.267Z,14.70
2018-08-31T22:59:29.977Z,14.70
2018-08-31T23:01:58.585Z,14.60
2018-08-31T23:04:27.233Z,14.60
2018-08-31T23:06:55.916Z,14.60
2018-08-31T23:09:24.636Z,14.50
2018-08-31T23:11:53.424Z,14.50
2018-08-31T23:14:22.070Z,14.40
2018-08-31T23:16:50.722Z,14.30
2018-08-31T23:19:19.361Z,14.30
2018-08-31T23:21:48.042Z,14.20
2018-08-31T23:24:16.710Z,14.20
2018-08-31T23:26:45.376Z,14.20
2018-08-31T23:29:14.047Z,14.10
2018-08-31T23:31:42.730Z,14.10
2018-08-31T23:34:11.383Z,14.00
2018-08-31T23:36:40.039Z,13.90
2018-08-31T23:39:09.347Z,13.90
2018-08-31T23:41:38.001Z,13.80
2018-08-31T23:44:06.833Z,13.80
2018-08-31T23:46:35.481Z,13.70
2018-08-31T23:49:04.134Z,13.60
2018-08-31T23:51:32.805Z,13.60
2018-08-31T23:54:01.461Z,13.50
2018-08-31T23:56:30.175Z,13.50
2018-08-31T23:58:58.785Z,13.60
